createdAt,value
2022-10-05T00:01:34.512Z,8.20
2022-10-05T00:04:28.263Z,7.70
2022-10-05T00:09:33.313Z,8.40
2022-10-05T00:12:20.376Z,6.70
2022-10-05T00:14:53.491Z,7.10
2022-10-05T00:19:54.197Z,6.90
2022-10-05T00:22:30.086Z,7.40
2022-10-05T00:25:01.477Z,6.10
2022-10-05T00:27:37.559Z,6.30
2022-10-05T00:30:27.090Z,4.10
2022-10-05T00:32:59.450Z,8.50
2022-10-05T00:35:29.552Z,6.80
2022-10-05T00:37:57.799Z,8.80
2022-10-05T00:40:50.748Z,6.20
2022-10-05T00:43:52.466Z,6.40
2022-10-05T00:46:30.560Z,6.20
2022-10-05T00:49:27.285Z,5.60
2022-10-05T00:52:29.607Z,6.90
2022-10-05T00:55:32.985Z,4.60
2022-10-05T00:58:19.307Z,4.00
2022-10-05T01:01:25.257Z,6.80
2022-10-05T01:04:40.733Z,3.70
2022-10-05T01:07:35.325Z,5.90
2022-10-05T01:10:24.925Z,5.60
2022-10-05T01:13:04.348Z,3.90
2022-10-05T01:15:54.621Z,5.50
2022-10-05T01:18:48.566Z,4.50
2022-10-05T01:21:28.494Z,4.40
2022-10-05T01:24:29.159Z,5.50
2022-10-05T01:28:01.836Z,4.70
2022-10-05T01:30:43.352Z,6.60
2022-10-05T01:33:48.092Z,2.80
2022-10-05T01:36:51.563Z,2.90
2022-10-05T01:39:34.981Z,3.90
2022-10-05T01:45:25.353Z,4.60
2022-10-05T01:48:13.623Z,6.60
2022-10-05T01:50:54.030Z,3.20
2022-10-05T01:53:49.206Z,5.00
2022-10-05T01:56:50.950Z,4.70
2022-10-05T01:59:27.913Z,7.50
2022-10-05T02:02:09.628Z,3.50
2022-10-05T02:05:04.672Z,4.10
2022-10-05T02:07:46.095Z,4.00
2022-10-05T02:10:29.139Z,6.20
2022-10-05T02:13:38.496Z,5.80
2022-10-05T02:16:16.962Z,5.00
2022-10-05T02:19:08.483Z,5.70
2022-10-05T02:21:38.550Z,4.60
2022-10-05T02:24:20.609Z,4.30
2022-10-05T02:26:52.532Z,6.00
2022-10-05T02:29:26.381Z,7.70
2022-10-05T02:32:02.961Z,10.10
2022-10-05T02:34:40.719Z,6.40
2022-10-05T02:37:42.588Z,8.50
2022-10-05T02:40:44.701Z,6.20
2022-10-05T02:43:31.016Z,5.00
2022-10-05T02:46:37.949Z,4.10
2022-10-05T02:49:34.424Z,6.50
2022-10-05T02:52:45.279Z,5.50
2022-10-05T02:55:26.564Z,5.10
2022-10-05T02:58:23.829Z,5.50
2022-10-05T03:01:49.388Z,5.40
2022-10-05T03:04:38.799Z,6.60
2022-10-05T03:07:46.325Z,6.20
2022-10-05T03:10:37.234Z,4.50
2022-10-05T03:13:54.659Z,5.70
2022-10-05T03:17:02.915Z,7.50
2022-10-05T03:20:14.601Z,7.10
2022-10-05T03:23:05.004Z,8.00
2022-10-05T03:25:54.227Z,6.20
2022-10-05T03:28:45.850Z,6.90
2022-10-05T03:31:38.253Z,6.10
2022-10-05T03:34:53.963Z,6.80
2022-10-05T03:37:39.129Z,6.30
2022-10-05T03:40:22.187Z,6.50
2022-10-05T03:43:02.485Z,7.00
2022-10-05T03:45:46.929Z,8.10
2022-10-05T03:48:28.889Z,9.00
2022-10-05T03:51:24.832Z,9.60
2022-10-05T03:54:30.997Z,6.60
2022-10-05T03:57:10.545Z,5.90
2022-10-05T04:00:16.069Z,5.40
2022-10-05T04:03:08.076Z,6.00
2022-10-05T04:05:47.214Z,6.70
2022-10-05T04:08:43.029Z,5.70
2022-10-05T04:11:42.458Z,8.40
2022-10-05T04:14:16.008Z,7.60
2022-10-05T04:16:49.639Z,7.00
2022-10-05T04:19:41.653Z,7.20
2022-10-05T04:22:32.112Z,8.00
2022-10-05T04:25:32.127Z,6.20
2022-10-05T04:28:35.166Z,7.80
2022-10-05T04:31:10.434Z,8.90
2022-10-05T04:33:38.609Z,7.70
2022-10-05T04:36:22.287Z,7.20
2022-10-05T04:41:40.081Z,11.20
2022-10-05T04:44:23.577Z,12.50
2022-10-05T04:47:06.036Z,13.00
2022-10-05T04:49:52.974Z,14.50
2022-10-05T04:52:37.364Z,11.20
2022-10-05T04:55:52.340Z,14.50
2022-10-05T04:58:50.997Z,13.00
2022-10-05T05:01:25.082Z,13.00
2022-10-05T05:04:24.808Z,16.80
2022-10-05T05:07:37.698Z,14.60
2022-10-05T05:10:35.745Z,36.40
2022-10-05T05:13:50.200Z,36.50
2022-10-05T05:16:39.026Z,25.60
2022-10-05T05:19:38.984Z,37.20
2022-10-05T05:22:36.702Z,17.70
2022-10-05T05:25:52.313Z,11.40
2022-10-05T05:28:42.525Z,10.30
2022-10-05T05:31:28.507Z,13.30
2022-10-05T05:34:41.568Z,18.90
2022-10-05T05:37:39.113Z,10.90
2022-10-05T05:40:10.212Z,10.00
2022-10-05T05:43:23.652Z,13.20
2022-10-05T05:46:17.526Z,8.20
2022-10-05T05:51:24.653Z,9.00
2022-10-05T05:54:18.114Z,9.00
2022-10-05T05:57:19.495Z,10.50
2022-10-05T06:00:38.698Z,10.10
2022-10-05T06:04:08.734Z,8.30
2022-10-05T06:06:43.193Z,5.80
2022-10-05T06:09:42.039Z,7.80
2022-10-05T06:12:28.425Z,7.90
2022-10-05T06:15:24.707Z,6.20
2022-10-05T06:18:00.187Z,8.70
2022-10-05T06:21:00.945Z,9.80
2022-10-05T06:23:48.984Z,9.50
2022-10-05T06:27:00.766Z,12.10
2022-10-05T06:30:07.327Z,12.90
2022-10-05T06:33:06.312Z,7.30
2022-10-05T06:35:55.513Z,10.90
2022-10-05T06:38:29.706Z,10.60
2022-10-05T06:41:13.038Z,9.50
2022-10-05T06:44:10.735Z,8.00
2022-10-05T06:47:23.327Z,10.90
2022-10-05T06:50:36.788Z,5.00
2022-10-05T06:54:10.917Z,8.30
2022-10-05T06:56:59.588Z,11.50
2022-10-05T07:00:04.057Z,9.00
2022-10-05T07:02:54.818Z,8.40
2022-10-05T07:06:02.280Z,10.70
2022-10-05T07:09:08.379Z,7.40
2022-10-05T07:12:03.852Z,7.40
2022-10-05T07:14:59.380Z,7.80
2022-10-05T07:18:09.552Z,6.40
2022-10-05T07:21:19.164Z,8.10
2022-10-05T07:24:42.549Z,4.40
2022-10-05T07:27:23.871Z,7.60
2022-10-05T07:30:08.019Z,9.50
2022-10-05T07:33:12.313Z,28.20
2022-10-05T07:36:50.862Z,15.90
2022-10-05T07:39:55.414Z,6.90
2022-10-05T07:42:51.738Z,7.10
2022-10-05T07:45:39.567Z,5.50
2022-10-05T07:48:33.163Z,9.40
2022-10-05T07:51:36.500Z,8.10
2022-10-05T07:54:17.009Z,6.50
2022-10-05T07:56:53.872Z,7.70
2022-10-05T07:59:35.740Z,7.20
2022-10-05T08:02:47.273Z,6.50
2022-10-05T08:05:28.485Z,7.10
2022-10-05T08:08:58.936Z,5.80
2022-10-05T08:12:25.487Z,7.10
2022-10-05T08:15:15.505Z,11.20
2022-10-05T08:18:05.916Z,11.80
2022-10-05T08:20:49.428Z,9.50
2022-10-05T08:23:50.779Z,12.10
2022-10-05T08:26:28.664Z,9.30
2022-10-05T08:29:13.943Z,9.50
2022-10-05T08:31:48.735Z,10.50
2022-10-05T08:34:26.000Z,9.60
2022-10-05T08:37:21.304Z,20.70
2022-10-05T08:40:00.813Z,33.10
2022-10-05T08:43:09.493Z,19.90
2022-10-05T08:46:01.280Z,25.10
2022-10-05T08:48:57.157Z,13.20
2022-10-05T08:51:37.542Z,14.20
2022-10-05T08:54:14.458Z,7.20
2022-10-05T08:57:38.996Z,16.50
2022-10-05T09:00:16.695Z,15.90
2022-10-05T09:03:45.707Z,19.50
2022-10-05T09:06:51.344Z,15.00
2022-10-05T09:09:49.971Z,10.70
2022-10-05T09:12:18.213Z,9.90
2022-10-05T09:15:01.510Z,10.80
2022-10-05T09:18:28.425Z,8.60
2022-10-05T09:21:14.806Z,20.50
2022-10-05T09:23:45.165Z,17.20
2022-10-05T09:26:45.638Z,12.20
2022-10-05T09:29:47.134Z,14.30
2022-10-05T09:33:06.207Z,13.80
2022-10-05T09:36:02.063Z,12.10
2022-10-05T09:39:09.503Z,15.90
2022-10-05T09:42:04.435Z,13.00
2022-10-05T09:45:03.465Z,11.40
2022-10-05T09:48:14.683Z,7.60
2022-10-05T09:51:02.483Z,7.30
2022-10-05T09:53:58.367Z,8.90
2022-10-05T09:57:18.920Z,8.30
2022-10-05T10:00:21.738Z,9.40
2022-10-05T10:03:45.852Z,7.70
2022-10-05T10:06:22.733Z,13.60
2022-10-05T10:09:35.174Z,20.70
2022-10-05T10:12:41.424Z,12.90
2022-10-05T10:15:50.162Z,6.30
2022-10-05T10:18:59.541Z,8.30
2022-10-05T10:22:14.664Z,5.90
2022-10-05T10:24:57.848Z,7.80
2022-10-05T10:27:59.131Z,5.60
2022-10-05T10:31:00.587Z,3.80
2022-10-05T10:33:52.617Z,5.00
2022-10-05T10:37:13.506Z,4.90
2022-10-05T10:40:43.060Z,6.90
2022-10-05T10:43:44.946Z,7.90
2022-10-05T10:47:05.956Z,8.90
2022-10-05T10:50:06.298Z,6.00
2022-10-05T10:53:21.304Z,4.30
2022-10-05T10:56:14.085Z,5.50
2022-10-05T10:58:54.048Z,3.90
2022-10-05T11:01:31.272Z,7.10
2022-10-05T11:04:14.024Z,3.80
2022-10-05T11:06:51.026Z,3.20
2022-10-05T11:09:34.682Z,3.20
2022-10-05T11:12:34.363Z,6.90
2022-10-05T11:15:51.656Z,3.50
2022-10-05T11:18:47.243Z,2.60
2022-10-05T11:21:31.840Z,5.40
2022-10-05T11:24:46.741Z,5.50
2022-10-05T11:27:26.487Z,2.70
2022-10-05T11:30:41.547Z,4.40
2022-10-05T11:34:03.349Z,4.20
2022-10-05T11:37:44.342Z,7.40
2022-10-05T11:40:36.978Z,6.80
2022-10-05T11:43:34.419Z,6.30
2022-10-05T11:46:24.703Z,4.20
2022-10-05T11:49:35.671Z,3.80
2022-10-05T11:52:26.352Z,5.20
2022-10-05T11:55:21.484Z,4.50
2022-10-05T11:58:07.626Z,3.70
2022-10-05T12:00:41.611Z,4.40
2022-10-05T12:03:52.003Z,3.60
2022-10-05T12:06:21.968Z,6.10
2022-10-05T12:09:18.237Z,12.40
2022-10-05T12:12:21.023Z,10.30
2022-10-05T12:15:17.468Z,10.20
2022-10-05T12:17:55.491Z,3.20
2022-10-05T12:20:38.344Z,5.00
2022-10-05T12:23:37.558Z,5.30
2022-10-05T12:26:14.998Z,6.40
2022-10-05T12:29:13.650Z,3.00
2022-10-05T12:32:08.771Z,2.70
2022-10-05T12:35:46.666Z,7.90
2022-10-05T12:38:37.263Z,5.60
2022-10-05T12:42:01.025Z,7.70
2022-10-05T12:44:55.618Z,8.30
2022-10-05T12:47:53.476Z,7.60
2022-10-05T12:50:38.367Z,6.60
2022-10-05T12:53:56.981Z,4.00
2022-10-05T12:56:46.892Z,9.90
2022-10-05T12:59:33.069Z,6.80
2022-10-05T13:02:44.467Z,7.50
2022-10-05T13:05:26.599Z,5.40
2022-10-05T13:08:09.534Z,2.10
2022-10-05T13:11:21.041Z,4.60
2022-10-05T13:14:13.972Z,5.00
2022-10-05T13:16:55.992Z,3.80
2022-10-05T13:19:44.591Z,4.40
2022-10-05T13:22:43.511Z,5.80
2022-10-05T13:25:14.343Z,6.10
2022-10-05T13:28:13.194Z,4.00
2022-10-05T13:30:51.896Z,5.50
2022-10-05T13:33:33.282Z,3.00
2022-10-05T13:36:15.334Z,3.90
2022-10-05T13:39:03.861Z,3.70
2022-10-05T13:42:15.696Z,3.20
2022-10-05T13:45:13.339Z,2.00
2022-10-05T13:47:53.020Z,2.40
2022-10-05T13:50:33.439Z,2.60
2022-10-05T13:53:29.714Z,3.10
2022-10-05T13:56:24.616Z,2.90
2022-10-05T13:59:36.422Z,2.20
2022-10-05T14:02:20.298Z,4.50
2022-10-05T14:04:57.635Z,5.20
2022-10-05T14:07:50.387Z,3.10
2022-10-05T14:10:43.652Z,4.40
2022-10-05T14:13:46.812Z,3.70
2022-10-05T14:16:24.004Z,4.20
2022-10-05T14:19:14.385Z,4.50
2022-10-05T14:22:03.156Z,7.10
2022-10-05T14:24:44.560Z,2.70
2022-10-05T14:27:33.312Z,4.30
2022-10-05T14:30:23.826Z,2.90
2022-10-05T14:33:03.902Z,2.90
2022-10-05T14:35:49.266Z,7.00
2022-10-05T14:38:29.943Z,9.00
2022-10-05T14:41:27.744Z,5.60
2022-10-05T14:44:06.113Z,7.20
2022-10-05T14:46:37.254Z,2.50
2022-10-05T14:49:37.488Z,2.50
2022-10-05T14:52:32.633Z,3.00
2022-10-05T14:56:01.557Z,3.50
2022-10-05T14:58:48.040Z,4.30
2022-10-05T15:01:34.019Z,3.90
2022-10-05T15:04:17.055Z,5.50
2022-10-05T15:07:04.200Z,4.70
2022-10-05T15:10:06.555Z,3.80
2022-10-05T15:12:46.934Z,3.80
2022-10-05T15:15:32.986Z,4.80
2022-10-05T15:18:15.056Z,3.10
2022-10-05T15:20:58.690Z,4.00
2022-10-05T15:23:41.166Z,4.20
2022-10-05T15:26:27.413Z,5.00
2022-10-05T15:29:17.792Z,3.70
2022-10-05T15:31:57.797Z,6.10
2022-10-05T15:34:45.102Z,8.90
2022-10-05T15:37:23.807Z,4.10
2022-10-05T15:40:08.495Z,4.50
2022-10-05T15:42:41.611Z,5.50
2022-10-05T15:47:57.372Z,5.70
2022-10-05T15:50:37.733Z,6.50
2022-10-05T15:53:14.948Z,7.10
2022-10-05T15:56:19.530Z,9.30
2022-10-05T15:59:02.296Z,7.00
2022-10-05T16:01:33.953Z,11.80
2022-10-05T16:04:35.798Z,7.80
2022-10-05T16:07:28.525Z,9.20
2022-10-05T16:10:15.561Z,13.20
2022-10-05T16:13:02.488Z,6.90
2022-10-05T16:15:48.751Z,7.60
2022-10-05T16:18:41.444Z,24.50
2022-10-05T16:21:41.531Z,66.10
2022-10-05T16:24:28.937Z,229.30
2022-10-05T16:27:10.509Z,86.70
2022-10-05T16:30:03.191Z,94.30
2022-10-05T16:32:39.433Z,53.30
2022-10-05T16:35:29.315Z,27.40
2022-10-05T16:38:14.617Z,85.20
2022-10-05T16:41:13.174Z,72.20
2022-10-05T16:44:09.206Z,137.10
2022-10-05T16:47:25.105Z,147.70
2022-10-05T16:50:13.579Z,176.30
2022-10-05T16:52:46.980Z,362.10
2022-10-05T16:55:32.414Z,207.50
2022-10-05T16:58:05.006Z,154.70
2022-10-05T17:00:58.121Z,179.50
2022-10-05T17:04:03.475Z,143.30
2022-10-05T17:07:00.592Z,37.50
2022-10-05T17:10:14.651Z,25.40
2022-10-05T17:13:14.218Z,27.80
2022-10-05T17:16:15.068Z,49.70
2022-10-05T17:19:10.099Z,37.30
2022-10-05T17:22:00.610Z,27.20
2022-10-05T17:25:18.404Z,26.70
2022-10-05T17:28:15.183Z,30.30
2022-10-05T17:31:14.191Z,38.90
2022-10-05T17:34:30.688Z,26.30
2022-10-05T17:37:32.039Z,23.60
2022-10-05T17:40:01.875Z,23.80
2022-10-05T17:42:30.005Z,24.10
2022-10-05T17:45:14.579Z,26.80
2022-10-05T17:48:03.829Z,26.30
2022-10-05T17:51:04.367Z,29.00
2022-10-05T17:54:06.417Z,26.10
2022-10-05T17:57:04.602Z,25.80
2022-10-05T18:00:01.744Z,33.50
2022-10-05T18:02:36.654Z,25.90
2022-10-05T18:05:16.218Z,30.70
2022-10-05T18:07:48.221Z,26.80
2022-10-05T18:10:29.037Z,25.60
2022-10-05T18:13:00.064Z,27.70
2022-10-05T18:15:28.360Z,27.70
2022-10-05T18:18:19.602Z,31.80
2022-10-05T18:21:11.721Z,30.60
2022-10-05T18:23:58.532Z,30.80
2022-10-05T18:26:46.737Z,27.90
2022-10-05T18:30:03.344Z,28.90
2022-10-05T18:33:28.216Z,33.80
2022-10-05T18:36:14.236Z,40.10
2022-10-05T18:39:09.806Z,35.10
2022-10-05T18:41:49.485Z,38.50
2022-10-05T18:44:44.332Z,32.80
2022-10-05T18:47:48.210Z,40.10
2022-10-05T18:52:57.040Z,44.50
2022-10-05T18:55:41.198Z,51.80
2022-10-05T18:58:14.322Z,56.30
2022-10-05T19:03:51.269Z,50.20
2022-10-05T19:06:27.046Z,34.20
2022-10-05T19:09:27.415Z,31.20
2022-10-05T19:12:20.812Z,32.70
2022-10-05T19:15:29.688Z,27.10
2022-10-05T19:18:09.044Z,25.70
2022-10-05T19:20:54.117Z,24.50
2022-10-05T19:24:02.466Z,23.30
2022-10-05T19:26:51.761Z,18.20
2022-10-05T19:29:47.392Z,19.90
2022-10-05T19:33:06.901Z,18.20
2022-10-05T19:36:08.558Z,16.50
2022-10-05T19:38:59.602Z,19.10
2022-10-05T19:41:55.856Z,17.10
2022-10-05T19:45:11.900Z,16.40
2022-10-05T19:48:02.453Z,22.10
2022-10-05T19:50:34.532Z,21.10
2022-10-05T19:53:12.775Z,21.10
2022-10-05T19:55:43.845Z,20.20
2022-10-05T19:58:25.356Z,20.80
2022-10-05T20:01:06.856Z,22.70
2022-10-05T20:03:38.078Z,21.80
2022-10-05T20:06:09.108Z,21.90
2022-10-05T20:08:50.022Z,25.50
2022-10-05T20:11:23.433Z,23.20
2022-10-05T20:13:55.134Z,22.20
2022-10-05T20:19:51.078Z,22.80
2022-10-05T20:22:33.196Z,22.00
2022-10-05T20:25:28.906Z,21.30
2022-10-05T20:27:57.947Z,21.40
2022-10-05T20:30:29.158Z,17.50
2022-10-05T20:33:04.651Z,19.60
2022-10-05T20:35:32.878Z,16.90
2022-10-05T20:38:01.173Z,18.00
2022-10-05T20:40:30.629Z,22.10
2022-10-05T20:42:59.030Z,22.60
2022-10-05T20:45:27.185Z,19.40
2022-10-05T20:47:55.396Z,20.60
2022-10-05T20:50:23.483Z,21.20
2022-10-05T20:52:51.570Z,22.50
2022-10-05T20:55:20.862Z,16.50
2022-10-05T20:57:48.980Z,20.90
2022-10-05T21:00:17.222Z,23.10
2022-10-05T21:02:46.900Z,21.60
2022-10-05T21:05:18.343Z,21.20
2022-10-05T21:07:46.839Z,23.90
2022-10-05T21:10:15.067Z,27.40
2022-10-05T21:12:43.802Z,25.40
2022-10-05T21:15:12.685Z,23.50
2022-10-05T21:17:40.820Z,23.50
2022-10-05T21:20:11.193Z,25.10
2022-10-05T21:22:39.289Z,24.90
2022-10-05T21:25:09.121Z,21.30
2022-10-05T21:27:37.296Z,22.20
2022-10-05T21:30:06.225Z,23.90
2022-10-05T21:32:34.489Z,22.60
2022-10-05T21:35:02.707Z,24.50
2022-10-05T21:37:30.815Z,27.60
2022-10-05T21:39:58.949Z,21.90
2022-10-05T21:42:27.146Z,24.70
2022-10-05T21:44:55.236Z,20.10
2022-10-05T21:47:23.409Z,21.70
2022-10-05T21:49:53.095Z,25.00
2022-10-05T21:52:21.916Z,20.00
2022-10-05T21:54:50.056Z,23.20
2022-10-05T21:57:18.722Z,21.10
2022-10-05T21:59:47.509Z,20.00
2022-10-05T22:02:15.623Z,20.50
2022-10-05T22:04:43.727Z,21.20
2022-10-05T22:07:20.640Z,21.40
2022-10-05T22:09:50.684Z,19.90
2022-10-05T22:12:20.085Z,22.20
2022-10-05T22:14:48.848Z,22.40
2022-10-05T22:17:24.901Z,19.40
2022-10-05T22:19:55.668Z,21.10
2022-10-05T22:22:25.505Z,22.30
2022-10-05T22:24:54.275Z,21.30
2022-10-05T22:27:24.771Z,19.00
2022-10-05T22:29:54.418Z,22.10
2022-10-05T22:32:22.507Z,19.10
2022-10-05T22:34:51.106Z,20.10
2022-10-05T22:37:19.205Z,22.20
2022-10-05T22:39:48.384Z,18.20
2022-10-05T22:42:16.615Z,24.50
2022-10-05T22:44:44.757Z,22.60
2022-10-05T22:47:13.385Z,21.70
2022-10-05T22:49:41.457Z,20.70
2022-10-05T22:52:09.576Z,23.00
2022-10-05T22:54:37.665Z,18.60
2022-10-05T22:57:05.820Z,19.40
2022-10-05T22:59:33.969Z,23.50
2022-10-05T23:02:02.132Z,17.40
2022-10-05T23:04:30.973Z,21.60
2022-10-05T23:06:59.132Z,20.00
2022-10-05T23:09:27.279Z,20.00
2022-10-05T23:11:55.473Z,16.20
2022-10-05T23:14:24.034Z,20.10
2022-10-05T23:16:52.161Z,21.40
2022-10-05T23:19:20.857Z,23.00
2022-10-05T23:21:49.389Z,19.30
2022-10-05T23:24:17.474Z,19.90
2022-10-05T23:26:45.589Z,18.00
2022-10-05T23:29:13.777Z,21.20
2022-10-05T23:31:41.893Z,20.70
2022-10-05T23:34:09.997Z,24.80
2022-10-05T23:36:38.127Z,18.10
2022-10-05T23:39:06.275Z,22.20
2022-10-05T23:41:34.556Z,21.90
2022-10-05T23:44:02.693Z,19.00
2022-10-05T23:46:30.837Z,20.80
2022-10-05T23:48:58.924Z,23.50
2022-10-05T23:51:27.121Z,20.20
2022-10-05T23:53:55.266Z,24.20
2022-10-05T23:56:23.400Z,17.90
2022-10-05T23:58:51.539Z,19.80
